Airfield :
LOGIN :

Register | Disclaimer

   EN    FR    IT 

 










Legend :    VFR   Marginal VFR   IFR   Intensive IFR   Very Intensive IFR
Visi :
Ceiling :
>= 8 km
>= 3000ft
5 to 8 km
1000 to 3000 ft
1500m to 5 km
500 to 1000 ft
800 to 1500m
200 to 500 ft
< 800m
< 200 ft
Symbols :   Thunderstorms  Fog  Heavy snow  Heavy precipitations  Wind > 20 kt
SIGMETs :     Misc.  Thunderstorms  Icing  Turbulence  Mountain Waves  Volcanic Ashes






- Airport Elevation : 231 ft
- IATA code : WTN


EGXW - RAF Waddington

CURRENT METAR :
  • 080250Z AUTO 19020KT 9999 SCT038/// 05/02 Q0978

EXPIRED METARs :
  • 080150Z AUTO 20026KT 9999 NCD 05/01 Q0978
  • 080050Z AUTO 21024KT 9999 FEW190/// 05/01 Q0978

TAF TAF EGXW
Valid from the 07 at 15:00 until the 08 at 09:00 UTC


071307Z 0715/0809 14025G35KT 9999 -RA BKN018
TEMPO 0715/0717 3000 +RA BKN010
BECMG 0717/0719 17018G28KT NSW FEW020
BECMG 0723/0802 BKN018
PROB30
TEMPO 0723/0805 18024G38KT
BECMG 0806/0809 20020G30KT



MET'MAP, your aeronautical weather chart ! - Copyright ORBIFLY December 2007 - Disclaimer

ORBIFLY MET'MAP TEAM :

Programming & Development : Alexandra Zaïnal
Concept & original design : Baudouin d'Aumeries
Assistance for programming : Marc-Olivier Méhu
Technical & hardware support : Manuel Goepfert

Contact : metmap@orbifly.com




SOURCES & CREDITS :

   NOAA